Time;durP1;ratioP1;P1;durP2;ratioP2;P2;SDS_P1;SDS_P2;PMS_P1;PMS_P2;Temp;Humidity;BMP_temperature;BMP_pressure;BME280_temperature;BME280_humidity;BME280_pressure;Samples;Min_cycle;Max_cycle;Signal;HPM_P1;HPM_P2
2022/12/29 00:02:19;;;;;;;10.18;4.28;;;7.50;99.90;;;;;;6165683;23;20185;-84
2022/12/29 00:04:46;;;;;;;5.95;5.32;;;7.50;99.90;;;;;;6162648;23;20178;-83
2022/12/29 00:07:12;;;;;;;5.93;4.43;;;7.40;99.90;;;;;;6162848;23;20187;-85
2022/12/29 00:09:39;;;;;;;5.95;3.83;;;7.30;99.90;;;;;;6161973;23;20189;-83
2022/12/29 00:12:06;;;;;;;7.78;4.28;;;7.30;99.90;;;;;;6162124;23;20177;-85
2022/12/29 00:17:19;;;;;;;10.02;3.83;;;7.30;99.90;;;;;;6162084;23;20203;-84
2022/12/29 00:36:23;;;;;;;6.40;3.53;;;7.30;99.90;;;;;;6162018;23;20190;-83
2022/12/29 00:44:27;;;;;;;4.13;2.95;;;7.30;99.90;;;;;;6163125;23;20162;-85
2022/12/29 00:46:54;;;;;;;5.20;3.25;;;7.20;99.90;;;;;;6161399;23;20248;-82
2022/12/29 00:49:30;;;;;;;5.13;3.83;;;7.20;99.90;;;;;;6161956;23;20177;-83
2022/12/29 00:52:06;;;;;;;3.08;2.33;;;7.20;99.90;;;;;;6162729;23;20176;-83
2022/12/29 00:54:35;;;;;;;8.93;3.90;;;7.20;99.90;;;;;;6164953;23;20167;-84
2022/12/29 00:57:04;;;;;;;3.40;2.80;;;7.20;99.90;;;;;;6164154;23;20185;-83
2022/12/29 00:59:31;;;;;;;8.00;3.85;;;7.10;99.90;;;;;;6163355;23;20181;-83
2022/12/29 01:01:58;;;;;;;6.25;3.65;;;7.00;99.90;;;;;;6162525;23;20178;-86
2022/12/29 01:04:26;;;;;;;7.72;4.40;;;7.00;99.90;;;;;;6165596;23;20177;-86
2022/12/29 01:06:53;;;;;;;3.00;2.70;;;7.00;99.90;;;;;;6164882;23;20225;-84
2022/12/29 01:15:30;;;;;;;3.83;2.55;;;7.00;99.90;;;;;;6167657;23;20205;-83
2022/12/29 01:17:57;;;;;;;3.95;2.95;;;7.00;99.90;;;;;;6164124;23;20181;-83
2022/12/29 01:20:24;;;;;;;3.92;2.80;;;7.00;99.90;;;;;;6163913;23;20204;-83
2022/12/29 01:22:52;;;;;;;3.75;2.70;;;6.90;99.90;;;;;;6163548;23;20180;-83
2022/12/29 01:25:18;;;;;;;4.03;2.92;;;7.00;99.90;;;;;;6164098;23;20390;-82
2022/12/29 01:27:45;;;;;;;5.22;3.15;;;7.00;99.90;;;;;;6163037;23;20189;-84
2022/12/29 01:30:12;;;;;;;5.30;3.60;;;7.10;99.90;;;;;;6163128;23;20181;-83
2022/12/29 01:32:40;;;;;;;7.57;3.30;;;7.20;99.90;;;;;;6164345;23;20180;-83
2022/12/29 01:35:07;;;;;;;3.90;3.15;;;7.20;99.90;;;;;;6163998;23;20432;-83
2022/12/29 01:37:34;;;;;;;3.72;2.78;;;7.20;99.90;;;;;;6165013;23;20176;-82
2022/12/29 01:40:00;;;;;;;5.45;2.58;;;7.30;99.90;;;;;;6169665;23;20188;-84
2022/12/29 01:42:27;;;;;;;3.05;2.35;;;7.20;99.90;;;;;;6163877;23;20224;-85
2022/12/29 01:44:55;;;;;;;2.50;2.30;;;7.30;99.90;;;;;;6166112;23;20228;-83
2022/12/29 01:47:34;;;;;;;4.38;3.05;;;7.30;99.90;;;;;;6167417;23;20216;-82
2022/12/29 01:50:24;;;;;;;3.58;2.63;;;7.30;99.90;;;;;;6165446;23;20165;-84
2022/12/29 01:53:01;;;;;;;2.35;2.15;;;7.20;99.90;;;;;;6175969;23;20180;-84
2022/12/29 01:55:31;;;;;;;3.55;1.98;;;7.10;99.90;;;;;;6177384;23;20169;-83
2022/12/29 01:58:01;;;;;;;5.80;3.17;;;7.10;99.90;;;;;;6169449;23;20176;-84
2022/12/29 02:00:28;;;;;;;7.22;1.92;;;7.20;99.90;;;;;;6163470;23;20267;-84
2022/12/29 02:02:55;;;;;;;4.00;1.95;;;7.10;99.90;;;;;;6164175;23;20377;-85
2022/12/29 02:05:37;;;;;;;1.65;1.45;;;7.20;99.90;;;;;;6163293;23;20263;-84
2022/12/29 02:08:04;;;;;;;1.95;1.50;;;7.20;99.90;;;;;;6162209;23;20193;-85
2022/12/29 02:10:34;;;;;;;5.45;1.85;;;7.30;99.90;;;;;;6163552;23;20227;-84
2022/12/29 02:13:02;;;;;;;3.90;2.38;;;7.40;99.90;;;;;;6163082;23;20165;-84
2022/12/29 02:16:08;;;;;;;2.92;2.00;;;7.40;99.90;;;;;;6163676;23;20185;-83
2022/12/29 02:18:57;;;;;;;4.65;2.72;;;7.30;99.90;;;;;;6157311;23;20200;-85
2022/12/29 02:21:44;;;;;;;1.50;1.40;;;7.40;99.90;;;;;;6164084;23;20220;-84
2022/12/29 02:24:27;;;;;;;8.10;3.60;;;7.40;99.90;;;;;;6164699;23;20173;-85
2022/12/29 02:26:56;;;;;;;1.70;1.60;;;7.30;99.90;;;;;;6166569;23;20169;-83
2022/12/29 02:30:14;;;;;;;2.10;1.65;;;7.20;99.90;;;;;;6168150;23;20169;-85
2022/12/29 02:32:44;;;;;;;3.58;1.85;;;7.30;99.90;;;;;;6047823;23;20510;-85
2022/12/29 02:35:55;;;;;;;3.08;2.00;;;7.30;99.90;;;;;;6157376;23;20204;-84
2022/12/29 02:38:48;;;;;;;3.45;2.13;;;7.20;99.90;;;;;;6045785;23;20184;-85
2022/12/29 02:41:31;;;;;;;2.10;1.55;;;7.10;99.90;;;;;;6044517;23;20344;-84
2022/12/29 02:44:13;;;;;;;2.20;1.83;;;7.20;99.90;;;;;;6127611;23;20228;-83
2022/12/29 02:46:51;;;;;;;1.67;1.40;;;7.20;99.90;;;;;;6162954;23;20173;-84
2022/12/29 02:49:20;;;;;;;3.30;2.25;;;7.30;99.90;;;;;;6183397;23;20165;-83
2022/12/29 02:52:07;;;;;;;3.38;1.90;;;7.30;99.90;;;;;;6181344;23;20165;-83
2022/12/29 02:54:42;;;;;;;4.75;2.75;;;7.30;99.90;;;;;;6172641;23;20165;-84
2022/12/29 02:57:28;;;;;;;4.90;2.30;;;7.20;99.90;;;;;;6164515;23;20200;-84
2022/12/29 03:00:10;;;;;;;4.50;2.05;;;7.20;99.90;;;;;;6164377;23;20217;-83
2022/12/29 03:02:55;;;;;;;4.95;2.53;;;7.10;99.90;;;;;;6164214;23;20376;-83
2022/12/29 03:05:41;;;;;;;3.47;2.80;;;7.20;99.90;;;;;;6163940;23;20224;-82
2022/12/29 03:08:31;;;;;;;4.40;2.33;;;7.20;99.90;;;;;;6162909;23;20260;-84
2022/12/29 03:12:07;;;;;;;5.15;3.95;;;7.20;99.90;;;;;;6162655;23;20485;-83
2022/12/29 03:17:01;;;;;;;2.83;2.50;;;7.20;99.90;;;;;;6163094;23;20185;-82
2022/12/29 03:19:37;;;;;;;2.83;2.13;;;7.00;99.90;;;;;;6160945;23;20182;-82
2022/12/29 03:22:27;;;;;;;3.25;2.60;;;7.00;99.90;;;;;;6165308;23;20223;-82
2022/12/29 03:25:17;;;;;;;5.15;3.15;;;7.10;99.90;;;;;;6179852;23;20228;-83
2022/12/29 03:27:51;;;;;;;3.50;2.25;;;7.10;99.90;;;;;;6174599;23;20358;-83
2022/12/29 03:30:18;;;;;;;3.05;1.75;;;7.20;99.90;;;;;;6164239;23;20449;-83
2022/12/29 03:32:52;;;;;;;2.92;2.25;;;7.40;99.90;;;;;;6162888;23;20506;-83
2022/12/29 03:35:22;;;;;;;3.38;1.73;;;7.50;99.90;;;;;;6163459;23;20169;-84
2022/12/29 03:38:13;;;;;;;5.40;2.28;;;7.40;99.90;;;;;;6162339;23;20198;-84
2022/12/29 03:40:44;;;;;;;1.77;1.55;;;7.30;99.90;;;;;;6161823;23;20200;-83
2022/12/29 03:43:12;;;;;;;3.05;2.67;;;7.20;99.90;;;;;;6162911;23;20173;-82
2022/12/29 03:45:39;;;;;;;3.83;2.80;;;7.50;99.90;;;;;;6162818;23;20184;-82
2022/12/29 03:48:06;;;;;;;7.00;3.13;;;7.50;99.90;;;;;;6165277;23;20240;-85
2022/12/29 03:50:33;;;;;;;2.45;2.25;;;7.40;99.90;;;;;;6172391;23;20181;-83
2022/12/29 03:53:00;;;;;;;3.97;2.63;;;7.40;99.90;;;;;;6169497;23;20201;-84
2022/12/29 03:55:27;;;;;;;2.67;1.75;;;7.40;99.90;;;;;;6165605;23;20189;-84
2022/12/29 03:57:54;;;;;;;3.05;2.38;;;7.30;99.90;;;;;;6162036;23;20177;-83
2022/12/29 04:00:21;;;;;;;2.30;2.10;;;7.20;99.90;;;;;;6161492;23;20309;-83
2022/12/29 04:02:48;;;;;;;2.33;1.90;;;7.20;99.90;;;;;;6159563;23;20240;-82
2022/12/29 04:05:15;;;;;;;2.47;2.22;;;7.30;99.90;;;;;;6170735;23;20208;-83
2022/12/29 04:07:42;;;;;;;2.30;1.70;;;7.20;99.90;;;;;;6166241;23;20188;-83
2022/12/29 04:10:09;;;;;;;3.92;2.10;;;7.30;99.90;;;;;;6172172;23;20168;-84
2022/12/29 04:12:36;;;;;;;2.47;2.20;;;7.30;99.90;;;;;;6167957;23;20232;-85
2022/12/29 04:15:03;;;;;;;5.13;2.15;;;7.20;99.90;;;;;;6160968;23;20209;-83
2022/12/29 04:17:30;;;;;;;3.10;2.10;;;7.10;99.90;;;;;;6159418;23;20500;-83
2022/12/29 04:20:59;;;;;;;1.98;1.75;;;7.30;99.90;;;;;;6159574;23;20232;-84
2022/12/29 04:22:44;;;;;;;4.28;2.25;;;7.30;99.90;;;;;;6160332;23;20496;-83
2022/12/29 04:25:10;;;;;;;3.53;2.75;;;7.30;99.90;;;;;;6159831;23;20544;-83
2022/12/29 04:27:38;;;;;;;2.03;1.63;;;7.30;99.90;;;;;;6160414;23;20189;-83
2022/12/29 04:30:06;;;;;;;3.28;2.58;;;7.40;99.90;;;;;;6159279;23;20185;-83
2022/12/29 04:32:33;;;;;;;5.68;3.22;;;7.30;99.90;;;;;;6160089;23;20645;-83
2022/12/29 04:35:00;;;;;;;4.13;2.65;;;7.30;99.90;;;;;;6160184;23;20189;-83
2022/12/29 04:37:26;;;;;;;3.38;2.25;;;7.50;99.90;;;;;;6160624;23;20185;-86
2022/12/29 04:39:53;;;;;;;4.85;3.33;;;7.40;99.90;;;;;;6159641;23;20185;-84
2022/12/29 04:42:20;;;;;;;4.45;2.78;;;7.30;99.90;;;;;;6159562;23;20287;-82
2022/12/29 04:44:47;;;;;;;2.13;1.92;;;7.50;99.90;;;;;;6159926;23;20190;-84
2022/12/29 04:47:14;;;;;;;3.75;2.90;;;7.50;99.90;;;;;;6158332;23;20192;-84
2022/12/29 04:49:40;;;;;;;4.70;2.03;;;7.60;99.90;;;;;;6159457;23;20224;-82
2022/12/29 04:52:08;;;;;;;8.45;4.55;;;7.60;99.90;;;;;;6160279;23;20204;-82
2022/12/29 04:54:35;;;;;;;4.15;2.00;;;7.70;99.90;;;;;;6161181;23;20181;-84
2022/12/29 04:57:02;;;;;;;4.03;2.30;;;7.90;99.90;;;;;;6161440;23;20185;-83
2022/12/29 04:59:29;;;;;;;7.15;4.28;;;7.80;99.90;;;;;;6160716;23;20181;-83
2022/12/29 05:01:56;;;;;;;4.55;3.13;;;7.90;99.90;;;;;;6173523;23;20209;-86
2022/12/29 05:04:24;;;;;;;4.72;2.25;;;7.80;99.90;;;;;;6176884;23;20177;-83
2022/12/29 05:06:51;;;;;;;3.38;1.95;;;7.80;99.90;;;;;;6163823;23;20186;-85
2022/12/29 05:09:17;;;;;;;2.55;2.13;;;7.80;99.90;;;;;;6160755;23;20228;-85
2022/12/29 05:11:45;;;;;;;3.80;2.75;;;8.00;99.90;;;;;;6160779;23;20185;-85
2022/12/29 05:14:12;;;;;;;12.05;3.60;;;7.90;99.90;;;;;;6176899;23;20185;-85
2022/12/29 05:16:40;;;;;;;8.98;4.18;;;7.90;99.90;;;;;;6180406;23;20189;-84
2022/12/29 05:19:07;;;;;;;3.85;2.60;;;8.00;99.90;;;;;;6181960;23;20201;-88
2022/12/29 05:21:34;;;;;;;3.08;2.25;;;8.00;99.90;;;;;;6180223;23;20208;-82
2022/12/29 05:24:01;;;;;;;5.57;4.53;;;7.90;99.90;;;;;;6173002;23;20227;-84
2022/12/29 05:26:28;;;;;;;4.38;2.80;;;7.80;99.90;;;;;;6160028;23;20182;-88
2022/12/29 05:28:56;;;;;;;8.13;5.00;;;7.80;99.90;;;;;;6161220;23;20224;-83
2022/12/29 05:31:22;;;;;;;8.43;5.55;;;7.80;99.90;;;;;;6161320;23;20190;-84
2022/12/29 05:33:49;;;;;;;8.50;3.13;;;7.70;99.90;;;;;;6162001;23;20208;-84
2022/12/29 05:36:17;;;;;;;3.70;2.70;;;7.60;99.90;;;;;;6162388;23;20236;-83
2022/12/29 05:38:44;;;;;;;5.22;3.05;;;7.50;99.90;;;;;;6160536;23;20417;-82
2022/12/29 05:41:11;;;;;;;6.35;2.30;;;7.30;99.90;;;;;;6158835;23;20214;-83
2022/12/29 05:43:38;;;;;;;4.53;2.47;;;7.20;99.90;;;;;;6159895;23;20213;-84
2022/12/29 05:46:05;;;;;;;2.97;2.65;;;7.10;99.90;;;;;;6160352;23;20416;-83
2022/12/29 05:48:32;;;;;;;4.15;2.88;;;7.10;99.90;;;;;;6161105;23;20228;-83
2022/12/29 05:51:04;;;;;;;6.20;2.85;;;7.10;99.90;;;;;;6161841;23;20481;-85
2022/12/29 05:53:30;;;;;;;7.45;2.05;;;7.20;99.90;;;;;;6162227;23;20239;-85
2022/12/29 05:55:59;;;;;;;2.17;1.85;;;7.20;99.90;;;;;;6160996;23;20177;-84
2022/12/29 05:58:26;;;;;;;4.90;2.67;;;7.30;99.90;;;;;;6161692;23;20185;-86
2022/12/29 06:00:53;;;;;;;2.63;1.55;;;7.30;99.90;;;;;;6159711;23;20444;-86
2022/12/29 06:03:20;;;;;;;2.75;2.10;;;7.40;99.90;;;;;;6162164;23;20185;-85
2022/12/29 06:05:47;;;;;;;3.75;2.30;;;7.40;99.90;;;;;;6160897;23;20412;-85
2022/12/29 06:08:13;;;;;;;2.33;2.13;;;7.40;99.90;;;;;;6161187;23;20184;-84
2022/12/29 06:10:40;;;;;;;4.03;3.00;;;7.40;99.90;;;;;;6161206;23;20186;-84
2022/12/29 06:13:07;;;;;;;4.22;2.95;;;7.50;99.90;;;;;;6161115;23;20192;-85
2022/12/29 06:15:36;;;;;;;4.07;2.15;;;7.50;99.90;;;;;;6160565;23;20509;-83
2022/12/29 06:18:03;;;;;;;4.00;2.70;;;7.50;99.90;;;;;;6160453;23;20188;-82
2022/12/29 06:20:30;;;;;;;6.60;3.17;;;7.50;99.90;;;;;;6159651;23;20193;-84
2022/12/29 06:22:57;;;;;;;6.05;3.55;;;7.60;99.90;;;;;;6160387;23;20202;-85
2022/12/29 06:25:24;;;;;;;2.92;2.65;;;7.60;99.90;;;;;;6168952;23;20166;-83
2022/12/29 06:27:51;;;;;;;4.75;2.60;;;7.70;99.90;;;;;;6178107;23;20389;-84
2022/12/29 06:30:20;;;;;;;4.07;2.40;;;7.70;99.90;;;;;;6177904;23;20198;-86
2022/12/29 06:32:47;;;;;;;3.40;3.10;;;7.80;99.90;;;;;;6174908;23;20187;-84
2022/12/29 06:35:14;;;;;;;5.20;3.25;;;7.80;99.90;;;;;;6165115;23;20225;-84
2022/12/29 06:37:41;;;;;;;4.60;3.47;;;7.70;99.90;;;;;;6162857;23;20186;-84
2022/12/29 06:40:09;;;;;;;7.88;2.63;;;7.70;99.90;;;;;;6171893;23;20186;-83
2022/12/29 06:42:36;;;;;;;3.60;2.70;;;7.80;99.90;;;;;;6179831;23;20192;-85
2022/12/29 06:45:03;;;;;;;6.00;3.05;;;8.00;99.90;;;;;;6180580;23;20170;-84
2022/12/29 06:47:30;;;;;;;4.63;3.15;;;8.00;99.90;;;;;;6178015;23;20229;-83
2022/12/29 06:49:57;;;;;;;2.55;2.33;;;8.10;99.90;;;;;;6163041;23;20550;-88
2022/12/29 06:52:24;;;;;;;4.38;3.33;;;8.10;99.90;;;;;;6158019;23;20228;-87
2022/12/29 06:54:51;;;;;;;3.08;2.75;;;8.20;99.90;;;;;;6158833;23;20248;-84
2022/12/29 06:57:18;;;;;;;6.18;3.05;;;8.20;99.90;;;;;;6158117;23;20212;-83
2022/12/29 06:59:45;;;;;;;4.07;2.65;;;8.40;99.90;;;;;;6157962;23;20191;-85
2022/12/29 07:02:14;;;;;;;6.55;2.85;;;8.30;99.90;;;;;;6158286;23;20193;-85
2022/12/29 07:07:12;;;;;;;3.88;3.22;;;8.20;99.90;;;;;;6136497;23;20179;-88
2022/12/29 07:09:40;;;;;;;2.10;1.90;;;8.30;99.90;;;;;;6130489;23;20489;-86
2022/12/29 07:12:06;;;;;;;2.78;2.50;;;8.40;99.90;;;;;;6130834;23;20203;-88
2022/12/29 07:14:34;;;;;;;5.50;2.75;;;8.50;99.90;;;;;;6108102;23;20198;-87
2022/12/29 07:17:09;;;;;;;7.40;3.10;;;8.60;99.90;;;;;;6132933;23;20230;-87
2022/12/29 07:19:36;;;;;;;9.00;3.83;;;8.50;99.90;;;;;;6133503;23;20184;-87
2022/12/29 07:22:03;;;;;;;4.90;2.47;;;8.50;99.90;;;;;;6132430;23;20204;-88
2022/12/29 07:24:30;;;;;;;5.00;2.65;;;8.50;99.90;;;;;;6131728;23;20210;-86
2022/12/29 07:32:17;;;;;;;5.00;3.35;;;8.70;99.90;;;;;;6111580;23;20215;-87
2022/12/29 07:34:47;;;;;;;10.65;3.55;;;8.60;99.90;;;;;;6139962;23;20196;-88
2022/12/29 07:39:49;;;;;;;2.95;2.58;;;8.50;99.90;;;;;;6118656;23;20232;-88
2022/12/29 07:44:58;;;;;;;5.32;2.53;;;8.60;99.90;;;;;;6122430;23;20180;-88
2022/12/29 07:47:28;;;;;;;4.90;3.13;;;8.70;99.90;;;;;;6142273;23;20183;-89
2022/12/29 07:49:55;;;;;;;3.45;2.40;;;8.90;99.90;;;;;;6144443;23;20459;-90
2022/12/29 07:52:22;;;;;;;7.03;2.67;;;9.00;99.90;;;;;;6142716;23;20201;-89
2022/12/29 07:54:49;;;;;;;3.33;2.90;;;9.20;99.90;;;;;;6155502;23;20198;-90
2022/12/29 07:57:24;;;;;;;2.30;2.10;;;9.20;99.90;;;;;;6175633;23;20197;-88
2022/12/29 07:59:58;;;;;;;4.20;2.70;;;9.40;99.90;;;;;;6170237;23;20175;-90
2022/12/29 08:02:26;;;;;;;4.32;2.10;;;9.50;99.90;;;;;;6172998;23;20203;-86
2022/12/29 08:21:10;;;;;;;4.55;3.05;;;9.60;99.90;;;;;;6137519;23;20439;-87
2022/12/29 08:26:12;;;;;;;7.35;3.47;;;9.50;99.90;;;;;;6144380;23;20218;-87
2022/12/29 08:28:40;;;;;;;5.05;3.05;;;9.60;99.90;;;;;;6143900;23;20195;-89
2022/12/29 08:31:08;;;;;;;4.43;3.70;;;9.70;99.90;;;;;;6131715;23;20259;-85
2022/12/29 08:33:38;;;;;;;4.40;3.63;;;9.60;99.90;;;;;;6168815;23;20167;-83
2022/12/29 08:36:07;;;;;;;11.05;5.55;;;9.50;99.90;;;;;;6168829;23;20180;-84
2022/12/29 08:38:45;;;;;;;35.42;19.52;;;9.70;99.90;;;;;;6171702;23;20180;-83
2022/12/29 08:41:12;;;;;;;12.07;6.82;;;9.70;99.90;;;;;;6173492;23;20199;-81
2022/12/29 08:43:40;;;;;;;8.10;4.28;;;9.70;99.90;;;;;;6167785;23;20214;-84
2022/12/29 08:46:08;;;;;;;4.65;4.10;;;9.70;99.90;;;;;;6170265;23;20179;-83
2022/12/29 08:48:34;;;;;;;7.32;3.92;;;9.50;99.90;;;;;;6170202;23;20219;-82
2022/12/29 08:51:02;;;;;;;4.82;4.25;;;9.40;99.90;;;;;;6153002;23;20225;-85
2022/12/29 08:53:29;;;;;;;6.30;3.95;;;9.40;99.90;;;;;;6140270;23;20180;-84
2022/12/29 08:56:03;;;;;;;3.13;2.83;;;9.40;99.90;;;;;;6143363;23;20176;-84
2022/12/29 08:58:34;;;;;;;6.60;4.07;;;9.40;99.90;;;;;;6137184;23;20252;-85
2022/12/29 09:01:02;;;;;;;6.97;4.18;;;9.40;99.90;;;;;;6137718;23;20507;-84
2022/12/29 09:03:32;;;;;;;8.20;5.60;;;9.40;99.90;;;;;;6139441;23;20268;-82
2022/12/29 09:06:19;;;;;;;8.07;4.25;;;9.40;99.90;;;;;;6136623;23;20188;-83
2022/12/29 09:08:46;;;;;;;8.20;4.45;;;9.40;99.90;;;;;;6158547;23;20235;-85
2022/12/29 09:11:20;;;;;;;4.63;3.47;;;9.60;99.90;;;;;;6134230;23;20259;-84
2022/12/29 09:13:48;;;;;;;10.05;4.25;;;9.50;99.90;;;;;;6130364;23;20172;-83
2022/12/29 09:16:16;;;;;;;5.35;4.30;;;9.60;99.90;;;;;;6130516;23;20196;-83
2022/12/29 09:18:44;;;;;;;10.45;4.50;;;9.70;99.90;;;;;;6130837;23;20234;-84
2022/12/29 09:21:12;;;;;;;5.43;3.38;;;9.80;99.90;;;;;;6133396;23;20177;-85
2022/12/29 09:23:39;;;;;;;4.20;3.40;;;10.00;99.90;;;;;;6133299;23;20255;-84
2022/12/29 09:26:07;;;;;;;8.85;3.72;;;10.20;99.90;;;;;;6162711;23;20188;-85
2022/12/29 09:28:35;;;;;;;6.95;5.45;;;10.10;99.90;;;;;;6141515;23;20248;-84
2022/12/29 09:31:05;;;;;;;3.65;3.30;;;10.10;99.90;;;;;;6142487;23;20172;-85
2022/12/29 09:33:35;;;;;;;5.13;3.40;;;10.30;99.90;;;;;;6133584;23;20198;-85
2022/12/29 09:36:03;;;;;;;4.47;3.42;;;10.20;99.90;;;;;;6133718;23;20269;-87
2022/12/29 09:38:30;;;;;;;6.25;3.60;;;10.30;99.90;;;;;;6133434;23;20184;-85
2022/12/29 09:41:06;;;;;;;5.22;4.00;;;10.30;99.90;;;;;;6131156;23;20204;-85
2022/12/29 09:43:58;;;;;;;3.97;3.15;;;10.50;99.90;;;;;;6132536;23;20260;-86
2022/12/29 09:46:37;;;;;;;7.80;4.00;;;10.70;99.90;;;;;;6132306;23;20486;-85
2022/12/29 09:49:24;;;;;;;9.90;3.15;;;10.70;99.90;;;;;;6132916;23;20342;-85
2022/12/29 09:51:54;;;;;;;8.25;3.65;;;10.70;99.90;;;;;;6133364;23;20429;-85
2022/12/29 09:54:24;;;;;;;5.43;4.07;;;10.90;99.90;;;;;;6131906;23;20184;-86
2022/12/29 09:56:54;;;;;;;7.97;4.55;;;11.00;99.90;;;;;;6131809;23;20190;-84
2022/12/29 09:59:26;;;;;;;7.45;3.80;;;10.80;99.90;;;;;;6131185;23;20181;-85
2022/12/29 10:02:06;;;;;;;5.45;3.65;;;10.90;99.90;;;;;;6135333;23;20190;-86
2022/12/29 10:04:34;;;;;;;8.15;4.45;;;10.80;99.90;;;;;;6133403;23;20216;-85
2022/12/29 10:07:18;;;;;;;6.20;3.40;;;10.70;99.90;;;;;;6137246;23;20185;-84
2022/12/29 10:10:14;;;;;;;3.88;3.35;;;10.80;99.90;;;;;;6135807;23;20184;-85
2022/12/29 10:12:53;;;;;;;4.63;3.25;;;10.80;99.90;;;;;;6137113;23;20196;-87
2022/12/29 10:15:40;;;;;;;3.30;3.00;;;10.80;99.90;;;;;;6134750;23;20164;-86
2022/12/29 10:18:44;;;;;;;4.28;2.97;;;10.80;99.90;;;;;;6135505;23;20204;-85
2022/12/29 10:21:36;;;;;;;3.70;2.70;;;10.80;99.90;;;;;;6136862;23;20187;-88
2022/12/29 10:24:10;;;;;;;5.55;2.70;;;10.90;99.90;;;;;;6134394;23;20430;-86
2022/12/29 10:26:43;;;;;;;4.78;3.13;;;11.20;99.90;;;;;;6133249;23;20424;-88
2022/12/29 10:29:19;;;;;;;5.65;2.38;;;11.30;99.90;;;;;;6133423;23;20359;-87
2022/12/29 10:31:59;;;;;;;4.50;2.63;;;11.40;99.90;;;;;;6132454;23;20418;-88
2022/12/29 10:34:41;;;;;;;3.75;2.78;;;11.40;99.90;;;;;;6135772;23;20508;-88
2022/12/29 10:37:25;;;;;;;5.03;2.72;;;11.40;99.90;;;;;;6132891;23;20162;-86
2022/12/29 10:40:00;;;;;;;4.00;2.72;;;11.40;99.90;;;;;;6132904;23;20184;-87
2022/12/29 10:42:36;;;;;;;2.33;2.13;;;11.30;99.90;;;;;;6133486;23;20228;-86
2022/12/29 10:45:05;;;;;;;7.20;2.85;;;11.30;99.90;;;;;;6136254;23;20177;-86
2022/12/29 10:47:38;;;;;;;2.20;1.95;;;11.30;99.90;;;;;;6141110;23;20185;-87
2022/12/29 10:50:05;;;;;;;2.65;2.17;;;11.20;99.90;;;;;;6139174;23;20244;-86
2022/12/29 10:52:33;;;;;;;7.03;2.85;;;11.20;99.90;;;;;;6142885;23;20204;-86
2022/12/29 10:55:11;;;;;;;7.80;3.03;;;11.20;99.90;;;;;;6142403;23;20190;-84
2022/12/29 10:57:44;;;;;;;3.63;2.10;;;11.30;99.90;;;;;;6147945;23;20387;-85
2022/12/29 11:00:12;;;;;;;4.97;2.42;;;11.40;99.90;;;;;;6146855;23;20173;-86
2022/12/29 11:03:13;;;;;;;4.63;2.35;;;11.40;99.90;;;;;;6144918;23;20221;-86
2022/12/29 11:06:02;;;;;;;8.77;2.47;;;11.40;99.90;;;;;;6147809;23;20192;-86
2022/12/29 11:08:37;;;;;;;4.20;3.83;;;11.50;99.90;;;;;;6147018;23;20158;-87
2022/12/29 11:11:07;;;;;;;3.42;2.33;;;11.50;99.90;;;;;;6143317;23;20309;-86
2022/12/29 11:13:49;;;;;;;6.47;2.60;;;11.60;99.90;;;;;;6139445;23;20197;-87
2022/12/29 11:16:34;;;;;;;3.38;2.30;;;11.50;99.90;;;;;;6136488;23;20189;-87
2022/12/29 11:19:02;;;;;;;4.47;2.53;;;11.60;99.90;;;;;;6136561;23;20173;-85
2022/12/29 11:21:41;;;;;;;5.07;3.13;;;11.80;99.90;;;;;;6135839;23;20477;-86
2022/12/29 11:24:29;;;;;;;4.32;2.65;;;11.70;99.90;;;;;;6136883;23;20197;-86
2022/12/29 11:27:24;;;;;;;8.68;3.20;;;11.70;99.90;;;;;;6134867;23;20166;-86
2022/12/29 11:29:53;;;;;;;14.95;2.40;;;11.80;99.90;;;;;;6158842;23;20178;-86
2022/12/29 11:32:26;;;;;;;2.38;1.73;;;11.80;99.90;;;;;;6135773;23;20189;-86
2022/12/29 11:34:58;;;;;;;3.80;2.10;;;11.70;99.90;;;;;;6135768;23;20395;-89
2022/12/29 11:37:34;;;;;;;3.83;3.28;;;11.70;99.90;;;;;;6135576;23;20173;-87
2022/12/29 11:40:15;;;;;;;3.90;2.88;;;11.90;99.90;;;;;;6135758;23;20204;-86
2022/12/29 11:42:52;;;;;;;4.05;2.85;;;11.90;99.90;;;;;;6133589;23;20208;-88
2022/12/29 11:45:34;;;;;;;8.02;2.40;;;12.10;99.90;;;;;;6134427;23;20185;-86
2022/12/29 11:48:09;;;;;;;6.38;2.63;;;12.10;99.90;;;;;;6139141;23;20169;-86
2022/12/29 11:50:40;;;;;;;3.97;2.70;;;12.20;99.90;;;;;;6148052;23;20160;-86
2022/12/29 11:53:21;;;;;;;6.03;2.88;;;12.30;99.90;;;;;;6147978;23;20156;-86
2022/12/29 11:56:11;;;;;;;6.28;2.80;;;12.10;99.90;;;;;;6146098;23;20178;-86
2022/12/29 11:58:39;;;;;;;4.63;3.10;;;12.10;99.90;;;;;;6137404;23;20192;-87
2022/12/29 12:01:17;;;;;;;8.73;2.10;;;12.00;99.90;;;;;;6135467;23;20518;-88
2022/12/29 12:04:05;;;;;;;7.38;2.28;;;11.90;99.90;;;;;;6136917;23;20213;-86
2022/12/29 12:06:36;;;;;;;6.00;2.78;;;11.70;99.90;;;;;;6138778;23;20178;-86
2022/12/29 12:09:10;;;;;;;2.67;2.13;;;11.80;99.90;;;;;;6144304;23;20205;-87
2022/12/29 12:11:41;;;;;;;3.10;2.38;;;11.70;99.90;;;;;;6142638;23;20181;-87
2022/12/29 12:14:20;;;;;;;7.80;6.80;;;11.80;99.90;;;;;;6140309;23;20170;-88
2022/12/29 12:16:55;;;;;;;4.93;3.47;;;11.60;99.90;;;;;;6135640;23;20166;-87
2022/12/29 12:19:36;;;;;;;3.75;2.95;;;11.40;99.90;;;;;;6159012;23;20240;-88
2022/12/29 12:22:26;;;;;;;8.82;3.40;;;11.40;99.90;;;;;;6136402;23;20514;-88
2022/12/29 12:25:08;;;;;;;3.47;2.60;;;11.00;99.90;;;;;;6133253;23;20185;-89
2022/12/29 12:27:48;;;;;;;9.20;3.13;;;10.90;99.90;;;;;;6137179;23;20170;-89
2022/12/29 12:30:22;;;;;;;7.68;3.20;;;10.90;99.90;;;;;;6137193;23;20386;-88
2022/12/29 12:33:05;;;;;;;5.07;3.67;;;10.80;99.90;;;;;;6138838;23;20226;-87
2022/12/29 12:35:49;;;;;;;13.48;3.47;;;10.80;99.90;;;;;;6134841;23;20192;-87
2022/12/29 12:39:09;;;;;;;3.25;2.05;;;10.90;99.90;;;;;;6136023;23;20184;-88
2022/12/29 12:42:05;;;;;;;7.05;2.60;;;10.90;99.90;;;;;;6083596;23;20189;-89
2022/12/29 12:44:58;;;;;;;7.53;2.53;;;10.80;99.90;;;;;;6137150;23;20208;-89
2022/12/29 12:48:04;;;;;;;3.53;2.67;;;10.80;99.90;;;;;;6098138;23;20184;-87
2022/12/29 12:50:51;;;;;;;4.32;3.00;;;10.70;99.90;;;;;;6135895;23;20244;-86
2022/12/29 12:53:58;;;;;;;3.63;2.20;;;10.80;99.90;;;;;;6137564;23;20207;-87
2022/12/29 12:56:50;;;;;;;5.18;2.90;;;10.80;99.90;;;;;;6137056;23;20181;-87
2022/12/29 12:59:45;;;;;;;5.40;3.45;;;10.80;99.90;;;;;;6137510;23;20209;-87
2022/12/29 13:02:40;;;;;;;5.85;2.10;;;10.90;99.90;;;;;;6138338;23;20623;-88
2022/12/29 13:05:35;;;;;;;4.30;2.75;;;10.90;99.90;;;;;;6135844;23;20185;-88
2022/12/29 13:08:32;;;;;;;2.83;2.10;;;10.90;99.90;;;;;;6138779;23;20212;-90
2022/12/29 13:11:23;;;;;;;4.15;3.00;;;11.00;99.90;;;;;;6136306;23;20237;-90
2022/12/29 13:13:59;;;;;;;3.30;2.60;;;10.90;99.90;;;;;;6137145;23;20180;-87
2022/12/29 13:17:13;;;;;;;3.00;2.65;;;10.80;99.90;;;;;;6140362;23;20224;-87
2022/12/29 13:20:02;;;;;;;6.28;3.15;;;10.90;99.90;;;;;;6147578;23;20169;-85
2022/12/29 13:22:42;;;;;;;10.63;2.88;;;10.90;99.90;;;;;;6147544;23;20181;-86
2022/12/29 13:25:29;;;;;;;6.25;2.65;;;11.00;99.90;;;;;;6147740;23;20173;-87
2022/12/29 13:28:16;;;;;;;4.90;2.60;;;11.00;99.90;;;;;;6142757;23;20185;-88
2022/12/29 13:30:59;;;;;;;4.30;3.00;;;11.00;99.90;;;;;;6144020;23;20197;-87
2022/12/29 13:33:48;;;;;;;4.93;2.30;;;11.10;99.90;;;;;;6150145;23;20160;-87
2022/12/29 13:36:29;;;;;;;4.30;2.85;;;11.20;99.90;;;;;;6148223;23;20192;-89
2022/12/29 13:39:06;;;;;;;10.65;3.30;;;11.20;99.90;;;;;;6141143;23;20165;-88
2022/12/29 13:41:35;;;;;;;9.93;2.83;;;11.20;99.90;;;;;;6139608;23;20461;-89
2022/12/29 13:44:04;;;;;;;4.32;2.80;;;11.20;99.90;;;;;;6138672;23;20209;-88
2022/12/29 13:46:38;;;;;;;4.95;2.90;;;11.30;99.90;;;;;;6137521;23;20264;-88
2022/12/29 13:49:17;;;;;;;6.65;2.45;;;11.40;99.90;;;;;;6139205;23;20197;-86
2022/12/29 13:51:57;;;;;;;5.57;2.65;;;11.40;99.90;;;;;;6146237;23;20160;-89
2022/12/29 13:54:48;;;;;;;6.88;3.47;;;11.40;99.90;;;;;;6138732;23;20276;-88
2022/12/29 13:57:55;;;;;;;3.97;2.90;;;11.30;99.90;;;;;;6137333;23;20211;-88
2022/12/29 14:00:25;;;;;;;5.47;2.70;;;11.30;99.90;;;;;;6056503;23;20223;-88
2022/12/29 14:03:25;;;;;;;3.72;2.42;;;11.30;99.90;;;;;;6133834;23;20177;-88
2022/12/29 14:06:13;;;;;;;4.65;2.55;;;11.20;99.90;;;;;;6137118;23;20189;-89
2022/12/29 14:08:42;;;;;;;8.85;4.53;;;11.10;99.90;;;;;;6138049;23;20166;-87
2022/12/29 14:11:11;;;;;;;4.80;3.53;;;11.00;99.90;;;;;;6135620;23;20188;-86
2022/12/29 14:13:40;;;;;;;3.60;3.30;;;11.00;99.90;;;;;;6137457;23;20279;-86
2022/12/29 14:16:29;;;;;;;5.72;3.92;;;10.70;99.90;;;;;;6133551;23;20240;-88
2022/12/29 14:19:16;;;;;;;4.63;3.17;;;10.80;99.90;;;;;;6133147;23;20188;-89
2022/12/29 14:21:59;;;;;;;7.40;3.70;;;10.90;99.90;;;;;;6137867;23;20146;-87
2022/12/29 14:24:37;;;;;;;8.05;4.70;;;10.80;99.90;;;;;;6143854;23;20207;-86
2022/12/29 14:27:10;;;;;;;4.07;3.70;;;10.80;99.90;;;;;;6141516;23;20188;-87
2022/12/29 14:29:39;;;;;;;4.53;3.70;;;10.90;99.90;;;;;;6138855;23;20260;-88
2022/12/29 14:32:39;;;;;;;4.60;3.75;;;10.90;99.90;;;;;;6135760;23;20306;-89
2022/12/29 14:35:39;;;;;;;8.23;4.97;;;10.70;99.90;;;;;;6086989;23;20205;-84
2022/12/29 14:38:18;;;;;;;11.27;4.88;;;10.50;99.90;;;;;;6131106;23;20263;-83